sensor_id;sensor_type;location;lat;lon;timestamp;P1;durP1;ratioP1;P2;durP2;ratioP2
11797;SDS011;5956;51.428;6.682;2023-01-19T00:01:14;12.60;;;11.27;;
11797;SDS011;5956;51.428;6.682;2023-01-19T00:03:40;11.50;;;10.43;;
11797;SDS011;5956;51.428;6.682;2023-01-19T00:06:06;13.80;;;11.67;;
11797;SDS011;5956;51.428;6.682;2023-01-19T00:08:34;12.17;;;10.40;;
11797;SDS011;5956;51.428;6.682;2023-01-19T00:11:00;12.87;;;11.57;;
11797;SDS011;5956;51.428;6.682;2023-01-19T00:13:27;11.67;;;10.50;;
11797;SDS011;5956;51.428;6.682;2023-01-19T00:15:54;13.57;;;11.40;;
11797;SDS011;5956;51.428;6.682;2023-01-19T00:18:22;14.17;;;11.20;;
11797;SDS011;5956;51.428;6.682;2023-01-19T00:20:49;13.70;;;10.97;;
11797;SDS011;5956;51.428;6.682;2023-01-19T00:23:15;12.50;;;11.20;;
11797;SDS011;5956;51.428;6.682;2023-01-19T00:25:42;11.20;;;10.10;;
11797;SDS011;5956;51.428;6.682;2023-01-19T00:28:09;15.53;;;11.00;;
11797;SDS011;5956;51.428;6.682;2023-01-19T00:30:36;11.87;;;10.67;;
11797;SDS011;5956;51.428;6.682;2023-01-19T00:33:03;13.33;;;11.00;;
11797;SDS011;5956;51.428;6.682;2023-01-19T00:35:31;12.03;;;10.83;;
11797;SDS011;5956;51.428;6.682;2023-01-19T00:37:57;11.87;;;10.33;;
11797;SDS011;5956;51.428;6.682;2023-01-19T00:40:24;13.40;;;10.73;;
11797;SDS011;5956;51.428;6.682;2023-01-19T00:42:51;13.33;;;11.20;;
11797;SDS011;5956;51.428;6.682;2023-01-19T00:45:18;11.63;;;10.43;;
11797;SDS011;5956;51.428;6.682;2023-01-19T00:47:45;13.17;;;10.87;;
11797;SDS011;5956;51.428;6.682;2023-01-19T00:50:12;14.23;;;11.90;;
11797;SDS011;5956;51.428;6.682;2023-01-19T00:52:42;12.27;;;11.17;;
11797;SDS011;5956;51.428;6.682;2023-01-19T00:55:10;12.43;;;11.13;;
11797;SDS011;5956;51.428;6.682;2023-01-19T00:57:37;12.77;;;11.47;;
11797;SDS011;5956;51.428;6.682;2023-01-19T01:00:04;12.50;;;11.30;;
11797;SDS011;5956;51.428;6.682;2023-01-19T01:02:32;13.00;;;11.67;;
11797;SDS011;5956;51.428;6.682;2023-01-19T01:04:58;13.73;;;11.60;;
11797;SDS011;5956;51.428;6.682;2023-01-19T01:07:27;13.37;;;12.00;;
11797;SDS011;5956;51.428;6.682;2023-01-19T01:09:55;11.97;;;10.73;;
11797;SDS011;5956;51.428;6.682;2023-01-19T01:12:22;11.60;;;10.43;;
11797;SDS011;5956;51.428;6.682;2023-01-19T01:14:48;12.37;;;11.17;;
11797;SDS011;5956;51.428;6.682;2023-01-19T01:17:15;12.10;;;10.90;;
11797;SDS011;5956;51.428;6.682;2023-01-19T01:19:41;13.30;;;11.87;;
11797;SDS011;5956;51.428;6.682;2023-01-19T01:22:08;14.13;;;12.07;;
11797;SDS011;5956;51.428;6.682;2023-01-19T01:24:35;13.13;;;11.37;;
11797;SDS011;5956;51.428;6.682;2023-01-19T01:27:03;13.13;;;11.17;;
11797;SDS011;5956;51.428;6.682;2023-01-19T01:29:30;13.83;;;11.80;;
11797;SDS011;5956;51.428;6.682;2023-01-19T01:31:59;13.57;;;11.20;;
11797;SDS011;5956;51.428;6.682;2023-01-19T01:34:26;16.50;;;12.10;;
11797;SDS011;5956;51.428;6.682;2023-01-19T01:36:52;15.47;;;11.93;;
11797;SDS011;5956;51.428;6.682;2023-01-19T01:39:19;12.63;;;11.27;;
11797;SDS011;5956;51.428;6.682;2023-01-19T01:41:46;14.07;;;12.00;;
11797;SDS011;5956;51.428;6.682;2023-01-19T01:51:49;13.10;;;11.80;;
11797;SDS011;5956;51.428;6.682;2023-01-19T01:54:17;13.20;;;11.30;;
11797;SDS011;5956;51.428;6.682;2023-01-19T01:56:45;12.70;;;11.40;;
11797;SDS011;5956;51.428;6.682;2023-01-19T01:59:13;13.13;;;11.80;;
11797;SDS011;5956;51.428;6.682;2023-01-19T02:01:50;11.97;;;10.67;;
11797;SDS011;5956;51.428;6.682;2023-01-19T02:04:30;12.77;;;11.43;;
11797;SDS011;5956;51.428;6.682;2023-01-19T02:06:57;14.17;;;12.43;;
11797;SDS011;5956;51.428;6.682;2023-01-19T02:09:41;13.43;;;12.03;;
11797;SDS011;5956;51.428;6.682;2023-01-19T02:12:25;14.93;;;11.33;;
11797;SDS011;5956;51.428;6.682;2023-01-19T02:15:13;12.60;;;11.30;;
11797;SDS011;5956;51.428;6.682;2023-01-19T02:17:39;13.43;;;11.90;;
11797;SDS011;5956;51.428;6.682;2023-01-19T02:20:05;13.60;;;11.47;;
11797;SDS011;5956;51.428;6.682;2023-01-19T02:22:32;14.80;;;11.10;;
11797;SDS011;5956;51.428;6.682;2023-01-19T02:25:04;14.17;;;12.03;;
11797;SDS011;5956;51.428;6.682;2023-01-19T02:27:31;13.03;;;11.67;;
11797;SDS011;5956;51.428;6.682;2023-01-19T02:29:58;13.80;;;12.40;;
11797;SDS011;5956;51.428;6.682;2023-01-19T02:32:27;15.50;;;11.97;;
11797;SDS011;5956;51.428;6.682;2023-01-19T02:34:54;13.43;;;11.73;;
11797;SDS011;5956;51.428;6.682;2023-01-19T02:37:21;15.13;;;11.93;;
11797;SDS011;5956;51.428;6.682;2023-01-19T02:39:48;12.97;;;11.67;;
11797;SDS011;5956;51.428;6.682;2023-01-19T02:42:17;13.10;;;11.73;;
11797;SDS011;5956;51.428;6.682;2023-01-19T02:44:47;14.80;;;11.73;;
11797;SDS011;5956;51.428;6.682;2023-01-19T02:47:14;12.70;;;11.30;;
11797;SDS011;5956;51.428;6.682;2023-01-19T02:49:40;13.87;;;11.80;;
11797;SDS011;5956;51.428;6.682;2023-01-19T02:52:07;13.53;;;11.43;;
11797;SDS011;5956;51.428;6.682;2023-01-19T02:54:42;14.33;;;11.63;;
11797;SDS011;5956;51.428;6.682;2023-01-19T02:57:15;12.70;;;11.33;;
11797;SDS011;5956;51.428;6.682;2023-01-19T02:59:50;14.13;;;11.27;;
11797;SDS011;5956;51.428;6.682;2023-01-19T03:02:24;15.37;;;10.90;;
11797;SDS011;5956;51.428;6.682;2023-01-19T03:04:58;13.00;;;11.63;;
11797;SDS011;5956;51.428;6.682;2023-01-19T03:07:28;12.93;;;11.57;;
11797;SDS011;5956;51.428;6.682;2023-01-19T03:09:57;14.07;;;11.60;;
11797;SDS011;5956;51.428;6.682;2023-01-19T03:12:26;12.07;;;10.87;;
11797;SDS011;5956;51.428;6.682;2023-01-19T03:14:58;12.87;;;11.57;;
11797;SDS011;5956;51.428;6.682;2023-01-19T03:17:27;11.87;;;10.60;;
11797;SDS011;5956;51.428;6.682;2023-01-19T03:19:56;15.37;;;11.90;;
11797;SDS011;5956;51.428;6.682;2023-01-19T03:22:24;12.23;;;10.90;;
11797;SDS011;5956;51.428;6.682;2023-01-19T03:24:53;12.33;;;10.90;;
11797;SDS011;5956;51.428;6.682;2023-01-19T03:27:22;13.33;;;11.20;;
11797;SDS011;5956;51.428;6.682;2023-01-19T03:29:51;11.77;;;10.30;;
11797;SDS011;5956;51.428;6.682;2023-01-19T03:32:20;11.67;;;10.43;;
11797;SDS011;5956;51.428;6.682;2023-01-19T03:34:48;13.27;;;11.30;;
11797;SDS011;5956;51.428;6.682;2023-01-19T03:37:17;14.33;;;10.97;;
11797;SDS011;5956;51.428;6.682;2023-01-19T03:39:45;11.93;;;10.43;;
11797;SDS011;5956;51.428;6.682;2023-01-19T03:42:12;15.17;;;11.43;;
11797;SDS011;5956;51.428;6.682;2023-01-19T03:44:40;14.43;;;11.57;;
11797;SDS011;5956;51.428;6.682;2023-01-19T03:47:09;12.80;;;10.70;;
11797;SDS011;5956;51.428;6.682;2023-01-19T03:49:37;13.37;;;11.67;;
11797;SDS011;5956;51.428;6.682;2023-01-19T03:52:05;16.17;;;12.17;;
11797;SDS011;5956;51.428;6.682;2023-01-19T03:54:32;14.53;;;12.67;;
11797;SDS011;5956;51.428;6.682;2023-01-19T03:56:58;12.80;;;11.50;;
11797;SDS011;5956;51.428;6.682;2023-01-19T03:59:25;14.40;;;12.07;;
11797;SDS011;5956;51.428;6.682;2023-01-19T04:01:51;14.37;;;12.33;;
11797;SDS011;5956;51.428;6.682;2023-01-19T04:04:18;17.33;;;12.07;;
11797;SDS011;5956;51.428;6.682;2023-01-19T04:06:46;13.13;;;11.63;;
11797;SDS011;5956;51.428;6.682;2023-01-19T04:09:12;15.97;;;11.57;;
11797;SDS011;5956;51.428;6.682;2023-01-19T04:11:39;13.80;;;11.93;;
11797;SDS011;5956;51.428;6.682;2023-01-19T04:14:06;14.33;;;12.10;;
11797;SDS011;5956;51.428;6.682;2023-01-19T04:16:32;15.30;;;12.00;;
11797;SDS011;5956;51.428;6.682;2023-01-19T04:18:59;19.20;;;12.87;;
11797;SDS011;5956;51.428;6.682;2023-01-19T04:21:25;16.50;;;12.43;;
11797;SDS011;5956;51.428;6.682;2023-01-19T04:23:53;17.17;;;13.20;;
11797;SDS011;5956;51.428;6.682;2023-01-19T04:26:20;18.13;;;13.00;;
11797;SDS011;5956;51.428;6.682;2023-01-19T04:28:46;19.23;;;14.00;;
11797;SDS011;5956;51.428;6.682;2023-01-19T04:31:13;19.43;;;13.63;;
11797;SDS011;5956;51.428;6.682;2023-01-19T04:33:39;20.77;;;14.53;;
11797;SDS011;5956;51.428;6.682;2023-01-19T04:36:06;17.43;;;14.23;;
11797;SDS011;5956;51.428;6.682;2023-01-19T04:38:33;20.20;;;13.93;;
11797;SDS011;5956;51.428;6.682;2023-01-19T04:41:01;17.73;;;14.80;;
11797;SDS011;5956;51.428;6.682;2023-01-19T04:43:27;17.77;;;14.57;;
11797;SDS011;5956;51.428;6.682;2023-01-19T04:45:54;18.50;;;14.80;;
11797;SDS011;5956;51.428;6.682;2023-01-19T04:48:21;20.40;;;15.00;;
11797;SDS011;5956;51.428;6.682;2023-01-19T04:50:49;21.40;;;15.80;;
11797;SDS011;5956;51.428;6.682;2023-01-19T04:53:15;23.60;;;15.93;;
11797;SDS011;5956;51.428;6.682;2023-01-19T04:55:42;21.77;;;15.30;;
11797;SDS011;5956;51.428;6.682;2023-01-19T04:58:12;16.77;;;14.63;;
11797;SDS011;5956;51.428;6.682;2023-01-19T05:00:40;18.27;;;15.17;;
11797;SDS011;5956;51.428;6.682;2023-01-19T05:03:06;19.90;;;15.53;;
11797;SDS011;5956;51.428;6.682;2023-01-19T05:05:33;21.07;;;16.53;;
11797;SDS011;5956;51.428;6.682;2023-01-19T05:07:59;16.80;;;15.00;;
11797;SDS011;5956;51.428;6.682;2023-01-19T05:10:26;19.20;;;16.03;;
11797;SDS011;5956;51.428;6.682;2023-01-19T05:12:53;18.50;;;15.40;;
11797;SDS011;5956;51.428;6.682;2023-01-19T05:15:21;17.23;;;14.37;;
11797;SDS011;5956;51.428;6.682;2023-01-19T05:17:48;15.50;;;12.90;;
11797;SDS011;5956;51.428;6.682;2023-01-19T05:20:14;15.70;;;13.77;;
11797;SDS011;5956;51.428;6.682;2023-01-19T05:22:41;15.87;;;13.07;;
11797;SDS011;5956;51.428;6.682;2023-01-19T05:25:08;15.43;;;13.27;;
11797;SDS011;5956;51.428;6.682;2023-01-19T05:27:34;13.40;;;11.77;;
11797;SDS011;5956;51.428;6.682;2023-01-19T05:30:01;14.20;;;12.17;;
11797;SDS011;5956;51.428;6.682;2023-01-19T05:32:30;14.50;;;12.40;;
11797;SDS011;5956;51.428;6.682;2023-01-19T05:34:57;14.03;;;12.10;;
11797;SDS011;5956;51.428;6.682;2023-01-19T05:37:23;14.30;;;11.10;;
11797;SDS011;5956;51.428;6.682;2023-01-19T05:39:50;13.73;;;11.80;;
11797;SDS011;5956;51.428;6.682;2023-01-19T05:42:16;12.07;;;10.87;;
11797;SDS011;5956;51.428;6.682;2023-01-19T05:44:43;12.33;;;10.70;;
11797;SDS011;5956;51.428;6.682;2023-01-19T05:47:10;12.40;;;10.57;;
11797;SDS011;5956;51.428;6.682;2023-01-19T05:49:38;11.97;;;9.87;;
11797;SDS011;5956;51.428;6.682;2023-01-19T05:52:04;11.57;;;10.37;;
11797;SDS011;5956;51.428;6.682;2023-01-19T05:54:31;10.43;;;9.33;;
11797;SDS011;5956;51.428;6.682;2023-01-19T05:56:57;10.23;;;9.17;;
11797;SDS011;5956;51.428;6.682;2023-01-19T05:59:24;8.77;;;7.97;;
11797;SDS011;5956;51.428;6.682;2023-01-19T06:01:51;10.33;;;9.33;;
11797;SDS011;5956;51.428;6.682;2023-01-19T06:04:18;9.60;;;8.80;;
11797;SDS011;5956;51.428;6.682;2023-01-19T06:06:47;7.90;;;7.20;;
11797;SDS011;5956;51.428;6.682;2023-01-19T06:09:14;8.93;;;7.70;;
11797;SDS011;5956;51.428;6.682;2023-01-19T06:11:41;8.87;;;8.07;;
11797;SDS011;5956;51.428;6.682;2023-01-19T06:14:08;8.73;;;7.93;;
11797;SDS011;5956;51.428;6.682;2023-01-19T06:16:35;8.87;;;8.03;;
11797;SDS011;5956;51.428;6.682;2023-01-19T06:19:01;7.90;;;7.20;;
11797;SDS011;5956;51.428;6.682;2023-01-19T06:21:28;4.97;;;4.50;;
11797;SDS011;5956;51.428;6.682;2023-01-19T06:23:56;8.13;;;7.43;;
11797;SDS011;5956;51.428;6.682;2023-01-19T06:26:22;9.87;;;8.87;;
11797;SDS011;5956;51.428;6.682;2023-01-19T06:28:50;7.00;;;6.37;;
11797;SDS011;5956;51.428;6.682;2023-01-19T06:31:16;6.97;;;6.30;;
11797;SDS011;5956;51.428;6.682;2023-01-19T06:33:43;6.50;;;5.83;;
11797;SDS011;5956;51.428;6.682;2023-01-19T06:36:10;6.07;;;5.57;;
11797;SDS011;5956;51.428;6.682;2023-01-19T06:38:36;6.70;;;6.20;;
11797;SDS011;5956;51.428;6.682;2023-01-19T06:41:04;9.93;;;8.97;;
11797;SDS011;5956;51.428;6.682;2023-01-19T06:43:31;7.53;;;6.73;;
11797;SDS011;5956;51.428;6.682;2023-01-19T06:45:57;6.90;;;6.30;;
11797;SDS011;5956;51.428;6.682;2023-01-19T06:48:25;7.03;;;6.43;;
11797;SDS011;5956;51.428;6.682;2023-01-19T06:50:52;7.53;;;6.73;;
11797;SDS011;5956;51.428;6.682;2023-01-19T06:53:19;7.77;;;6.97;;
11797;SDS011;5956;51.428;6.682;2023-01-19T06:55:46;6.70;;;6.17;;
11797;SDS011;5956;51.428;6.682;2023-01-19T06:58:14;8.67;;;7.87;;
11797;SDS011;5956;51.428;6.682;2023-01-19T07:00:41;8.17;;;7.37;;
11797;SDS011;5956;51.428;6.682;2023-01-19T07:03:08;8.83;;;8.03;;
11797;SDS011;5956;51.428;6.682;2023-01-19T07:05:35;8.63;;;7.90;;
11797;SDS011;5956;51.428;6.682;2023-01-19T07:08:01;9.50;;;8.70;;
11797;SDS011;5956;51.428;6.682;2023-01-19T07:10:28;9.13;;;8.23;;
11797;SDS011;5956;51.428;6.682;2023-01-19T07:12:55;9.30;;;8.47;;
11797;SDS011;5956;51.428;6.682;2023-01-19T07:15:23;9.73;;;8.70;;
11797;SDS011;5956;51.428;6.682;2023-01-19T07:17:50;11.60;;;8.87;;
11797;SDS011;5956;51.428;6.682;2023-01-19T07:20:16;12.07;;;10.67;;
11797;SDS011;5956;51.428;6.682;2023-01-19T07:22:43;10.07;;;9.07;;
11797;SDS011;5956;51.428;6.682;2023-01-19T07:25:10;11.60;;;10.40;;
11797;SDS011;5956;51.428;6.682;2023-01-19T07:27:37;9.67;;;8.73;;
11797;SDS011;5956;51.428;6.682;2023-01-19T07:30:05;11.63;;;10.53;;
11797;SDS011;5956;51.428;6.682;2023-01-19T07:32:33;12.17;;;10.07;;
11797;SDS011;5956;51.428;6.682;2023-01-19T07:35:00;11.50;;;9.83;;
11797;SDS011;5956;51.428;6.682;2023-01-19T07:37:27;12.03;;;10.67;;
11797;SDS011;5956;51.428;6.682;2023-01-19T07:39:53;11.87;;;10.57;;
11797;SDS011;5956;51.428;6.682;2023-01-19T07:42:20;11.67;;;10.47;;
11797;SDS011;5956;51.428;6.682;2023-01-19T07:44:47;13.67;;;10.67;;
11797;SDS011;5956;51.428;6.682;2023-01-19T07:47:13;11.80;;;9.93;;
11797;SDS011;5956;51.428;6.682;2023-01-19T07:49:41;11.50;;;10.30;;
11797;SDS011;5956;51.428;6.682;2023-01-19T07:52:08;11.87;;;10.57;;
11797;SDS011;5956;51.428;6.682;2023-01-19T07:54:34;12.63;;;10.57;;
11797;SDS011;5956;51.428;6.682;2023-01-19T07:57:01;14.67;;;11.30;;
11797;SDS011;5956;51.428;6.682;2023-01-19T07:59:28;11.20;;;10.10;;
11797;SDS011;5956;51.428;6.682;2023-01-19T08:01:56;14.80;;;10.73;;
11797;SDS011;5956;51.428;6.682;2023-01-19T08:04:23;11.70;;;10.50;;
11797;SDS011;5956;51.428;6.682;2023-01-19T08:06:51;12.40;;;10.40;;
11797;SDS011;5956;51.428;6.682;2023-01-19T08:09:18;12.20;;;10.57;;
11797;SDS011;5956;51.428;6.682;2023-01-19T08:11:44;11.60;;;10.40;;
11797;SDS011;5956;51.428;6.682;2023-01-19T08:14:11;11.00;;;9.90;;
11797;SDS011;5956;51.428;6.682;2023-01-19T08:16:38;10.97;;;9.93;;
11797;SDS011;5956;51.428;6.682;2023-01-19T08:19:04;12.17;;;10.70;;
11797;SDS011;5956;51.428;6.682;2023-01-19T08:21:31;14.00;;;11.90;;
11797;SDS011;5956;51.428;6.682;2023-01-19T08:23:59;12.40;;;10.33;;
11797;SDS011;5956;51.428;6.682;2023-01-19T08:26:26;11.00;;;9.87;;
11797;SDS011;5956;51.428;6.682;2023-01-19T08:28:54;12.23;;;11.03;;
11797;SDS011;5956;51.428;6.682;2023-01-19T08:31:21;13.67;;;11.53;;
11797;SDS011;5956;51.428;6.682;2023-01-19T08:33:48;11.73;;;10.73;;
11797;SDS011;5956;51.428;6.682;2023-01-19T08:36:15;10.83;;;9.73;;
11797;SDS011;5956;51.428;6.682;2023-01-19T08:38:43;13.43;;;12.03;;
11797;SDS011;5956;51.428;6.682;2023-01-19T08:41:11;13.00;;;11.70;;
11797;SDS011;5956;51.428;6.682;2023-01-19T08:43:38;11.83;;;10.60;;
11797;SDS011;5956;51.428;6.682;2023-01-19T08:46:04;11.30;;;10.30;;
11797;SDS011;5956;51.428;6.682;2023-01-19T08:48:31;11.73;;;10.53;;
11797;SDS011;5956;51.428;6.682;2023-01-19T08:50:58;10.97;;;9.90;;
11797;SDS011;5956;51.428;6.682;2023-01-19T08:53:24;12.73;;;9.97;;
11797;SDS011;5956;51.428;6.682;2023-01-19T08:55:53;10.50;;;9.60;;
11797;SDS011;5956;51.428;6.682;2023-01-19T08:58:21;10.70;;;9.77;;
11797;SDS011;5956;51.428;6.682;2023-01-19T09:00:47;11.13;;;10.03;;
11797;SDS011;5956;51.428;6.682;2023-01-19T09:03:16;10.63;;;9.57;;
11797;SDS011;5956;51.428;6.682;2023-01-19T09:05:43;10.97;;;9.87;;
11797;SDS011;5956;51.428;6.682;2023-01-19T09:08:11;10.97;;;9.87;;
11797;SDS011;5956;51.428;6.682;2023-01-19T09:10:38;12.77;;;10.67;;
11797;SDS011;5956;51.428;6.682;2023-01-19T09:13:09;11.47;;;10.33;;
11797;SDS011;5956;51.428;6.682;2023-01-19T09:15:38;11.13;;;9.93;;
11797;SDS011;5956;51.428;6.682;2023-01-19T09:18:06;12.37;;;10.90;;
11797;SDS011;5956;51.428;6.682;2023-01-19T09:20:34;14.03;;;11.97;;
11797;SDS011;5956;51.428;6.682;2023-01-19T09:23:03;14.60;;;12.53;;
11797;SDS011;5956;51.428;6.682;2023-01-19T09:25:30;13.97;;;12.53;;
11797;SDS011;5956;51.428;6.682;2023-01-19T09:27:57;16.17;;;13.07;;
11797;SDS011;5956;51.428;6.682;2023-01-19T09:30:24;16.03;;;13.10;;
11797;SDS011;5956;51.428;6.682;2023-01-19T09:32:53;16.03;;;13.03;;
11797;SDS011;5956;51.428;6.682;2023-01-19T09:35:19;16.20;;;14.50;;
11797;SDS011;5956;51.428;6.682;2023-01-19T09:37:47;16.63;;;14.20;;
11797;SDS011;5956;51.428;6.682;2023-01-19T09:40:13;17.93;;;13.73;;
11797;SDS011;5956;51.428;6.682;2023-01-19T09:42:41;19.00;;;14.50;;
11797;SDS011;5956;51.428;6.682;2023-01-19T09:45:10;19.03;;;15.10;;
11797;SDS011;5956;51.428;6.682;2023-01-19T09:47:39;20.73;;;16.20;;
11797;SDS011;5956;51.428;6.682;2023-01-19T09:50:09;19.70;;;14.73;;
11797;SDS011;5956;51.428;6.682;2023-01-19T09:52:38;18.37;;;15.13;;
11797;SDS011;5956;51.428;6.682;2023-01-19T09:55:07;21.33;;;15.93;;
11797;SDS011;5956;51.428;6.682;2023-01-19T09:57:43;24.40;;;17.07;;
11797;SDS011;5956;51.428;6.682;2023-01-19T10:00:11;20.53;;;17.20;;
11797;SDS011;5956;51.428;6.682;2023-01-19T10:02:39;25.40;;;17.80;;
11797;SDS011;5956;51.428;6.682;2023-01-19T10:05:13;26.50;;;18.60;;
11797;SDS011;5956;51.428;6.682;2023-01-19T10:07:51;27.37;;;18.97;;
11797;SDS011;5956;51.428;6.682;2023-01-19T10:10:20;22.40;;;18.50;;
11797;SDS011;5956;51.428;6.682;2023-01-19T10:12:49;25.40;;;19.07;;
11797;SDS011;5956;51.428;6.682;2023-01-19T10:15:21;24.97;;;19.17;;
11797;SDS011;5956;51.428;6.682;2023-01-19T10:18:00;25.67;;;19.43;;
11797;SDS011;5956;51.428;6.682;2023-01-19T10:20:31;25.23;;;19.23;;
11797;SDS011;5956;51.428;6.682;2023-01-19T10:23:00;29.83;;;20.57;;
11797;SDS011;5956;51.428;6.682;2023-01-19T10:25:29;30.17;;;21.57;;
11797;SDS011;5956;51.428;6.682;2023-01-19T10:27:56;27.07;;;20.73;;
11797;SDS011;5956;51.428;6.682;2023-01-19T10:30:23;28.53;;;20.33;;
11797;SDS011;5956;51.428;6.682;2023-01-19T10:32:51;27.83;;;21.67;;
11797;SDS011;5956;51.428;6.682;2023-01-19T10:35:19;33.57;;;21.07;;
11797;SDS011;5956;51.428;6.682;2023-01-19T10:37:50;29.47;;;21.00;;
11797;SDS011;5956;51.428;6.682;2023-01-19T10:40:21;30.67;;;21.60;;
11797;SDS011;5956;51.428;6.682;2023-01-19T10:42:48;30.93;;;20.90;;
11797;SDS011;5956;51.428;6.682;2023-01-19T10:45:15;31.27;;;21.30;;
11797;SDS011;5956;51.428;6.682;2023-01-19T10:47:42;31.83;;;21.63;;
11797;SDS011;5956;51.428;6.682;2023-01-19T10:50:21;31.20;;;21.33;;
11797;SDS011;5956;51.428;6.682;2023-01-19T10:52:49;31.67;;;21.50;;
11797;SDS011;5956;51.428;6.682;2023-01-19T10:55:25;29.20;;;21.53;;
11797;SDS011;5956;51.428;6.682;2023-01-19T10:57:52;29.20;;;20.40;;
11797;SDS011;5956;51.428;6.682;2023-01-19T11:03:02;35.30;;;21.83;;
11797;SDS011;5956;51.428;6.682;2023-01-19T11:05:30;29.03;;;21.53;;
11797;SDS011;5956;51.428;6.682;2023-01-19T11:07:58;30.83;;;22.93;;
11797;SDS011;5956;51.428;6.682;2023-01-19T11:10:25;30.00;;;21.67;;
11797;SDS011;5956;51.428;6.682;2023-01-19T11:12:55;24.90;;;18.57;;
11797;SDS011;5956;51.428;6.682;2023-01-19T11:15:23;34.00;;;22.97;;
11797;SDS011;5956;51.428;6.682;2023-01-19T11:17:50;35.60;;;22.27;;
11797;SDS011;5956;51.428;6.682;2023-01-19T11:20:19;28.27;;;21.30;;
11797;SDS011;5956;51.428;6.682;2023-01-19T11:22:46;28.40;;;20.93;;
11797;SDS011;5956;51.428;6.682;2023-01-19T11:25:21;32.23;;;23.23;;
11797;SDS011;5956;51.428;6.682;2023-01-19T11:27:52;32.70;;;21.50;;
11797;SDS011;5956;51.428;6.682;2023-01-19T11:30:19;34.97;;;23.77;;
11797;SDS011;5956;51.428;6.682;2023-01-19T11:32:47;34.67;;;23.47;;
11797;SDS011;5956;51.428;6.682;2023-01-19T11:38:04;36.47;;;22.87;;
11797;SDS011;5956;51.428;6.682;2023-01-19T11:40:32;36.30;;;23.07;;
11797;SDS011;5956;51.428;6.682;2023-01-19T11:42:59;34.73;;;22.57;;
11797;SDS011;5956;51.428;6.682;2023-01-19T11:45:26;33.40;;;22.73;;
11797;SDS011;5956;51.428;6.682;2023-01-19T11:47:53;35.97;;;22.80;;
11797;SDS011;5956;51.428;6.682;2023-01-19T11:50:21;33.83;;;24.50;;
11797;SDS011;5956;51.428;6.682;2023-01-19T11:52:50;33.23;;;22.37;;
11797;SDS011;5956;51.428;6.682;2023-01-19T11:55:20;30.90;;;21.43;;
11797;SDS011;5956;51.428;6.682;2023-01-19T11:57:50;31.83;;;21.70;;
11797;SDS011;5956;51.428;6.682;2023-01-19T12:00:21;35.00;;;20.97;;
11797;SDS011;5956;51.428;6.682;2023-01-19T12:02:48;32.63;;;21.27;;
11797;SDS011;5956;51.428;6.682;2023-01-19T12:05:17;33.73;;;21.77;;
11797;SDS011;5956;51.428;6.682;2023-01-19T12:07:44;31.90;;;22.00;;
11797;SDS011;5956;51.428;6.682;2023-01-19T12:10:16;35.80;;;20.83;;
11797;SDS011;5956;51.428;6.682;2023-01-19T12:12:46;28.57;;;20.83;;
11797;SDS011;5956;51.428;6.682;2023-01-19T12:15:18;29.47;;;20.60;;
11797;SDS011;5956;51.428;6.682;2023-01-19T12:17:48;35.23;;;21.67;;
11797;SDS011;5956;51.428;6.682;2023-01-19T12:20:18;33.13;;;20.57;;
11797;SDS011;5956;51.428;6.682;2023-01-19T12:22:47;29.03;;;19.37;;
11797;SDS011;5956;51.428;6.682;2023-01-19T12:25:18;20.70;;;13.27;;
11797;SDS011;5956;51.428;6.682;2023-01-19T12:27:46;40.83;;;21.47;;
11797;SDS011;5956;51.428;6.682;2023-01-19T12:30:17;26.73;;;17.33;;
11797;SDS011;5956;51.428;6.682;2023-01-19T12:32:44;25.97;;;15.57;;
11797;SDS011;5956;51.428;6.682;2023-01-19T12:42:46;23.07;;;15.97;;
11797;SDS011;5956;51.428;6.682;2023-01-19T12:45:15;21.83;;;16.07;;
11797;SDS011;5956;51.428;6.682;2023-01-19T12:47:50;22.47;;;17.00;;
11797;SDS011;5956;51.428;6.682;2023-01-19T12:50:17;31.53;;;13.37;;
11797;SDS011;5956;51.428;6.682;2023-01-19T12:52:48;25.30;;;16.90;;
11797;SDS011;5956;51.428;6.682;2023-01-19T12:55:21;26.43;;;16.53;;
11797;SDS011;5956;51.428;6.682;2023-01-19T12:57:50;21.37;;;15.43;;
11797;SDS011;5956;51.428;6.682;2023-01-19T13:00:27;20.47;;;16.03;;
11797;SDS011;5956;51.428;6.682;2023-01-19T13:02:55;17.90;;;14.27;;
11797;SDS011;5956;51.428;6.682;2023-01-19T13:05:24;23.00;;;15.43;;
11797;SDS011;5956;51.428;6.682;2023-01-19T13:20:43;19.00;;;13.33;;
11797;SDS011;5956;51.428;6.682;2023-01-19T13:23:15;17.93;;;12.90;;
11797;SDS011;5956;51.428;6.682;2023-01-19T13:25:42;19.00;;;13.13;;
11797;SDS011;5956;51.428;6.682;2023-01-19T13:28:12;17.03;;;12.00;;
11797;SDS011;5956;51.428;6.682;2023-01-19T13:30:43;17.00;;;12.80;;
11797;SDS011;5956;51.428;6.682;2023-01-19T13:33:14;18.10;;;12.50;;
11797;SDS011;5956;51.428;6.682;2023-01-19T13:35:49;15.17;;;11.57;;
11797;SDS011;5956;51.428;6.682;2023-01-19T13:38:16;15.70;;;11.87;;
11797;SDS011;5956;51.428;6.682;2023-01-19T13:40:44;19.47;;;12.80;;
11797;SDS011;5956;51.428;6.682;2023-01-19T13:43:14;18.20;;;12.80;;
11797;SDS011;5956;51.428;6.682;2023-01-19T13:45:44;22.87;;;13.50;;
11797;SDS011;5956;51.428;6.682;2023-01-19T13:48:13;22.53;;;13.50;;
11797;SDS011;5956;51.428;6.682;2023-01-19T13:50:41;15.70;;;11.93;;
11797;SDS011;5956;51.428;6.682;2023-01-19T13:53:18;18.03;;;11.97;;
11797;SDS011;5956;51.428;6.682;2023-01-19T13:55:47;20.40;;;13.67;;
11797;SDS011;5956;51.428;6.682;2023-01-19T13:58:30;16.90;;;12.60;;
11797;SDS011;5956;51.428;6.682;2023-01-19T14:00:57;21.33;;;13.47;;
11797;SDS011;5956;51.428;6.682;2023-01-19T14:03:24;15.87;;;13.03;;
11797;SDS011;5956;51.428;6.682;2023-01-19T14:05:52;20.00;;;13.47;;
11797;SDS011;5956;51.428;6.682;2023-01-19T14:08:20;20.57;;;13.87;;
11797;SDS011;5956;51.428;6.682;2023-01-19T14:10:58;23.43;;;14.87;;
11797;SDS011;5956;51.428;6.682;2023-01-19T14:13:26;20.83;;;13.97;;
11797;SDS011;5956;51.428;6.682;2023-01-19T14:15:55;20.83;;;14.37;;
11797;SDS011;5956;51.428;6.682;2023-01-19T14:18:24;20.30;;;13.57;;
11797;SDS011;5956;51.428;6.682;2023-01-19T14:20:52;25.60;;;15.20;;
11797;SDS011;5956;51.428;6.682;2023-01-19T14:26:01;19.63;;;15.70;;
11797;SDS011;5956;51.428;6.682;2023-01-19T14:28:31;19.53;;;15.07;;
11797;SDS011;5956;51.428;6.682;2023-01-19T14:31:00;21.67;;;15.00;;
11797;SDS011;5956;51.428;6.682;2023-01-19T14:33:34;18.67;;;14.50;;
11797;SDS011;5956;51.428;6.682;2023-01-19T14:36:09;24.53;;;19.00;;
11797;SDS011;5956;51.428;6.682;2023-01-19T14:38:36;18.40;;;14.53;;
11797;SDS011;5956;51.428;6.682;2023-01-19T14:41:05;17.97;;;14.63;;
11797;SDS011;5956;51.428;6.682;2023-01-19T14:43:32;18.80;;;13.63;;
11797;SDS011;5956;51.428;6.682;2023-01-19T14:45:59;15.90;;;13.17;;
11797;SDS011;5956;51.428;6.682;2023-01-19T14:48:27;15.70;;;11.63;;
11797;SDS011;5956;51.428;6.682;2023-01-19T14:50:59;14.33;;;11.67;;
11797;SDS011;5956;51.428;6.682;2023-01-19T14:53:26;16.50;;;11.57;;
11797;SDS011;5956;51.428;6.682;2023-01-19T14:55:54;16.20;;;11.53;;
11797;SDS011;5956;51.428;6.682;2023-01-19T14:58:25;14.20;;;10.93;;
11797;SDS011;5956;51.428;6.682;2023-01-19T15:00:52;16.10;;;11.73;;
11797;SDS011;5956;51.428;6.682;2023-01-19T15:03:20;14.07;;;12.27;;
11797;SDS011;5956;51.428;6.682;2023-01-19T15:05:46;15.67;;;11.77;;
11797;SDS011;5956;51.428;6.682;2023-01-19T15:08:15;15.33;;;11.53;;
11797;SDS011;5956;51.428;6.682;2023-01-19T15:10:43;16.57;;;12.27;;
11797;SDS011;5956;51.428;6.682;2023-01-19T15:13:10;18.00;;;12.70;;
11797;SDS011;5956;51.428;6.682;2023-01-19T15:15:42;17.37;;;12.07;;
11797;SDS011;5956;51.428;6.682;2023-01-19T15:18:10;19.63;;;12.23;;
11797;SDS011;5956;51.428;6.682;2023-01-19T15:20:39;16.37;;;11.80;;